Time;durP1;ratioP1;P1;durP2;ratioP2;P2;SDS_P1;SDS_P2;PMS_P1;PMS_P2;Temp;Humidity;BMP_temperature;BMP_pressure;BME280_temperature;BME280_humidity;BME280_pressure;Samples;Min_cycle;Max_cycle;Signal;HPM_P1;HPM_P2
2022/01/07 00:00:16;;;;;;;5.77;4.30;;;;;;;-3.72;100.00;96712.16;5053186;28;20437;-75
2022/01/07 00:02:48;;;;;;;4.90;4.40;;;;;;;-4.03;100.00;96669.38;5069674;28;20433;-75
2022/01/07 00:05:15;;;;;;;6.27;3.80;;;;;;;-3.94;100.00;96691.28;5052685;28;20828;-75
2022/01/07 00:07:42;;;;;;;6.03;4.73;;;;;;;-3.82;100.00;96715.31;5054320;28;20453;-77
2022/01/07 00:10:11;;;;;;;11.23;5.80;;;;;;;-3.80;100.00;96702.94;5053216;28;20528;-76
2022/01/07 00:12:38;;;;;;;6.17;5.57;;;;;;;-4.15;100.00;96679.69;5053716;28;20445;-76
2022/01/07 00:15:05;;;;;;;9.17;5.90;;;;;;;-4.09;100.00;96680.63;5053493;28;20492;-76
2022/01/07 00:17:33;;;;;;;10.03;5.70;;;;;;;-4.25;100.00;96677.69;5052551;28;20461;-76
2022/01/07 00:20:00;;;;;;;7.30;6.60;;;;;;;-4.09;100.00;96704.63;5036536;28;20445;-76
2022/01/07 00:22:26;;;;;;;7.13;6.30;;;;;;;-4.39;100.00;96654.91;5070170;28;20536;-76
2022/01/07 00:24:53;;;;;;;9.90;5.80;;;;;;;-4.28;100.00;96670.38;5052459;28;20452;-76
2022/01/07 00:27:20;;;;;;;7.80;6.27;;;;;;;-4.14;100.00;96675.31;5036075;28;20946;-75
2022/01/07 00:29:51;;;;;;;7.07;6.27;;;;;;;-4.23;100.00;96659.41;5053284;28;20409;-76
2022/01/07 00:32:17;;;;;;;7.27;6.40;;;;;;;-4.33;100.00;96646.25;5053628;28;20571;-76
2022/01/07 00:34:44;;;;;;;15.67;6.30;;;;;;;-4.07;100.00;96692.28;5037148;28;20437;-75
2022/01/07 00:37:11;;;;;;;11.23;6.53;;;;;;;-4.05;100.00;96699.81;5053524;28;20506;-75
2022/01/07 00:39:38;;;;;;;11.93;6.33;;;;;;;-4.30;100.00;96656.91;5052650;28;20429;-75
2022/01/07 00:42:06;;;;;;;10.37;6.00;;;;;;;-4.25;100.00;96664.78;5037293;28;20536;-75
2022/01/07 00:44:33;;;;;;;10.30;7.00;;;;;;;-4.25;100.00;96659.63;5052504;28;20433;-75
2022/01/07 00:47:00;;;;;;;9.20;5.43;;;;;;;-4.16;100.00;96675.53;5051743;28;20468;-75
2022/01/07 00:49:26;;;;;;;6.20;4.83;;;;;;;-4.13;100.00;96664.78;5051596;28;20472;-75
2022/01/07 00:51:53;;;;;;;6.03;5.30;;;;;;;-4.46;100.00;96635.13;5035191;28;20441;-76
2022/01/07 00:54:20;;;;;;;7.00;6.30;;;;;;;-4.39;100.00;96642.78;5068420;28;20479;-75
2022/01/07 00:56:47;;;;;;;8.90;6.33;;;;;;;-4.48;100.00;96644.91;5035637;28;20559;-76
2022/01/07 00:59:14;;;;;;;8.80;5.83;;;;;;;-4.24;100.00;96668.16;5051793;28;20432;-76
2022/01/07 01:01:40;;;;;;;9.40;5.70;;;;;;;-4.44;100.00;96636.72;5035148;28;20460;-75
2022/01/07 01:04:07;;;;;;;9.73;6.10;;;;;;;-4.29;100.00;96673.19;5068138;28;20445;-76
2022/01/07 01:06:34;;;;;;;7.80;5.27;;;;;;;-4.46;100.00;96653.19;5051123;28;20535;-75
2022/01/07 01:09:01;;;;;;;13.07;6.07;;;;;;;-4.58;100.00;96641.28;5052953;28;20439;-75
2022/01/07 01:11:28;;;;;;;7.03;5.23;;;;;;;-4.46;100.00;96648.03;5051905;28;20527;-75
2022/01/07 01:13:54;;;;;;;8.40;5.30;;;;;;;-4.25;100.00;96669.16;5051827;28;20428;-75
2022/01/07 01:16:21;;;;;;;7.13;6.10;;;;;;;-4.37;100.00;96647.72;5051647;28;20540;-75
2022/01/07 01:18:48;;;;;;;8.13;5.30;;;;;;;-4.26;100.00;96660.63;5068013;28;20437;-76
2022/01/07 01:21:14;;;;;;;6.90;5.60;;;;;;;-4.30;100.00;96661.28;5067877;28;20437;-75
2022/01/07 01:23:45;;;;;;;8.23;4.80;;;;;;;-4.69;100.00;96609.31;5051674;28;20428;-75
2022/01/07 01:26:12;;;;;;;7.70;6.23;;;;;;;-4.44;100.00;96639.28;5034632;28;20469;-75
2022/01/07 01:28:39;;;;;;;7.67;5.60;;;;;;;-4.52;100.00;96630.09;5051181;28;20429;-75
2022/01/07 01:31:06;;;;;;;13.97;6.30;;;;;;;-4.64;100.00;96613.81;5051345;28;20524;-74
2022/01/07 01:33:33;;;;;;;11.00;6.77;;;;;;;-4.59;100.00;96639.72;5053116;28;20799;-75
2022/01/07 01:36:00;;;;;;;8.27;6.77;;;;;;;-4.51;100.00;96631.66;5067404;28;20465;-75
2022/01/07 01:38:30;;;;;;;9.90;8.30;;;;;;;-4.31;100.00;96649.41;5063461;28;20567;-75
2022/01/07 01:40:57;;;;;;;9.90;5.90;;;;;;;-4.51;100.00;96621.34;5070859;28;20472;-75
2022/01/07 01:43:24;;;;;;;7.00;5.70;;;;;;;-4.39;100.00;96636.84;5071953;28;20428;-75
2022/01/07 01:45:50;;;;;;;7.07;5.90;;;;;;;-4.36;100.00;96638.97;5054051;28;20650;-75
2022/01/07 01:48:18;;;;;;;8.53;5.90;;;;;;;-4.31;100.00;96634.69;5070621;28;20444;-75
2022/01/07 01:50:45;;;;;;;7.33;6.37;;;;;;;-4.46;100.00;96635.13;5071895;28;21134;-75
2022/01/07 01:53:13;;;;;;;10.13;7.03;;;;;;;-4.55;100.00;96592.63;5069248;28;20897;-76
2022/01/07 01:55:40;;;;;;;10.00;6.67;;;;;;;-4.36;100.00;96626.84;5070607;28;20451;-77
2022/01/07 01:58:07;;;;;;;9.07;6.70;;;;;;;-4.34;100.00;96621.47;5072412;28;20429;-78
2022/01/07 02:00:35;;;;;;;8.33;7.10;;;;;;;-4.28;100.00;96617.97;5071087;28;20515;-76
2022/01/07 02:03:02;;;;;;;5.67;4.73;;;;;;;-4.29;100.00;96611.25;5071024;28;20428;-77
2022/01/07 02:05:28;;;;;;;14.13;9.13;;;;;;;-4.57;100.00;96570.63;5071658;28;20429;-77
2022/01/07 02:07:55;;;;;;;11.07;7.90;;;;;;;-4.51;100.00;96583.44;5070581;28;20436;-76
2022/01/07 02:10:22;;;;;;;13.93;6.20;;;;;;;-4.21;100.00;96621.25;5070219;28;20534;-75
2022/01/07 02:12:48;;;;;;;12.43;6.73;;;;;;;-4.45;100.00;96594.66;5053855;28;20440;-76
2022/01/07 02:15:16;;;;;;;9.57;6.90;;;;;;;-4.07;100.00;96632.13;5071511;28;20784;-76
2022/01/07 02:17:46;;;;;;;8.87;6.53;;;;;;;-4.30;100.00;96596.78;5053468;28;20464;-76
2022/01/07 02:20:16;;;;;;;9.30;6.80;;;;;;;-4.19;100.00;96608.91;5070308;28;20503;-73
2022/01/07 02:22:42;;;;;;;8.53;5.37;;;;;;;-4.16;100.00;96611.00;5053401;28;21050;-74
2022/01/07 02:25:10;;;;;;;9.00;5.20;;;;;;;-4.30;100.00;96582.06;5053777;28;20451;-75
2022/01/07 02:27:40;;;;;;;7.40;5.00;;;;;;;-4.28;100.00;96585.22;5071701;28;20502;-75
2022/01/07 02:30:10;;;;;;;5.73;4.97;;;;;;;-4.06;100.00;96619.00;5070158;28;20959;-75
2022/01/07 02:32:36;;;;;;;5.83;5.23;;;;;;;-4.04;100.00;96616.19;5070299;28;20526;-74
2022/01/07 02:35:05;;;;;;;4.90;4.40;;;;;;;-4.03;100.00;96615.94;5069715;28;20452;-73
2022/01/07 02:37:31;;;;;;;7.60;5.30;;;;;;;-4.01;100.00;96613.13;5053724;28;20479;-73
2022/01/07 02:39:58;;;;;;;6.43;5.43;;;;;;;-4.07;100.00;96589.03;5069826;28;20930;-74
2022/01/07 02:42:25;;;;;;;9.47;5.30;;;;;;;-4.03;100.00;96584.97;5070070;28;20454;-74
2022/01/07 02:44:52;;;;;;;6.73;5.23;;;;;;;-3.79;100.00;96608.19;5070051;28;20439;-76
2022/01/07 02:47:19;;;;;;;11.53;7.00;;;;;;;-4.00;100.00;96573.44;5070281;28;20468;-75
2022/01/07 02:49:46;;;;;;;9.27;5.90;;;;;;;-4.25;100.00;96540.91;5073848;28;20436;-75
2022/01/07 02:52:13;;;;;;;11.23;7.27;;;;;;;-3.90;100.00;96607.19;5057481;28;20472;-74
2022/01/07 02:54:39;;;;;;;19.30;9.80;;;;;;;-4.07;100.00;96594.19;5073974;28;20973;-73
2022/01/07 02:57:06;;;;;;;15.83;8.47;;;;;;;-3.89;100.00;96611.31;5056882;28;20459;-73
2022/01/07 02:59:33;;;;;;;17.23;7.60;;;;;;;-3.98;100.00;96595.41;5057036;28;20454;-73
2022/01/07 03:02:00;;;;;;;10.90;7.20;;;;;;;-3.98;100.00;96568.81;5073378;28;20502;-73
2022/01/07 03:04:28;;;;;;;22.30;7.80;;;;;;;-3.89;100.00;96568.22;5057255;28;20535;-73
2022/01/07 03:06:55;;;;;;;9.77;6.13;;;;;;;-3.98;100.00;96555.91;5073474;28;20521;-73
2022/01/07 03:09:21;;;;;;;18.23;8.20;;;;;;;-3.89;100.00;96596.63;5073243;28;20828;-73
2022/01/07 03:11:48;;;;;;;12.90;6.97;;;;;;;-3.84;100.00;96603.69;5076431;28;20478;-75
2022/01/07 03:14:16;;;;;;;12.33;6.70;;;;;;;-4.13;100.00;96563.34;5073429;28;20942;-75
2022/01/07 03:16:42;;;;;;;9.50;6.83;;;;;;;-3.80;100.00;96598.84;5057123;28;20927;-75
2022/01/07 03:19:09;;;;;;;10.10;6.13;;;;;;;-3.87;100.00;96586.09;5074700;28;20432;-75
2022/01/07 03:21:36;;;;;;;8.70;6.27;;;;;;;-4.41;100.00;96505.47;5056618;28;20451;-75
2022/01/07 03:24:03;;;;;;;14.57;9.07;;;;;;;-3.83;100.00;96579.44;5074473;28;20459;-75
2022/01/07 03:26:30;;;;;;;12.17;8.80;;;;;;;-3.82;100.00;96582.81;5056803;28;20551;-75
2022/01/07 03:28:56;;;;;;;15.63;7.07;;;;;;;-4.21;100.00;96512.84;5073406;28;20474;-74
2022/01/07 03:31:23;;;;;;;14.67;9.77;;;;;;;-3.88;100.00;96562.03;5073076;28;20444;-74
2022/01/07 03:33:50;;;;;;;12.00;7.77;;;;;;;-3.63;100.00;96579.81;5073187;28;20442;-75
2022/01/07 03:36:17;;;;;;;9.70;8.73;;;;;;;-3.86;100.00;96517.94;5072608;28;20467;-74
2022/01/07 03:38:43;;;;;;;15.97;8.30;;;;;;;-3.58;100.00;96585.09;5056247;28;20534;-75
2022/01/07 03:41:10;;;;;;;17.20;9.03;;;;;;;-3.84;100.00;96557.22;5072973;28;20505;-74
2022/01/07 03:43:37;;;;;;;19.23;9.07;;;;;;;-3.71;100.00;96567.28;5072866;28;20436;-74
2022/01/07 03:46:03;;;;;;;14.43;10.03;;;;;;;-3.94;100.00;96524.22;5072690;28;20535;-74
2022/01/07 03:48:30;;;;;;;17.33;8.90;;;;;;;-3.61;100.00;96571.84;5072850;28;20471;-74
2022/01/07 03:50:57;;;;;;;15.77;10.27;;;;;;;-3.81;100.00;96546.41;5072906;28;20502;-75
2022/01/07 03:53:25;;;;;;;21.77;12.07;;;;;;;-3.70;100.00;96574.03;5071548;28;20453;-75
2022/01/07 03:55:52;;;;;;;17.57;9.17;;;;;;;-3.86;100.00;96559.25;5072721;28;20490;-75
2022/01/07 03:58:19;;;;;;;19.70;9.50;;;;;;;-3.89;100.00;96550.13;5056006;28;20436;-75
2022/01/07 04:00:46;;;;;;;14.90;9.17;;;;;;;-3.76;100.00;96551.66;5055118;28;20479;-75
2022/01/07 04:03:15;;;;;;;25.13;11.00;;;;;;;-3.56;100.00;96569.38;5074190;28;20460;-75
2022/01/07 04:05:43;;;;;;;25.33;9.43;;;;;;;-3.79;100.00;96539.22;5072546;28;20495;-74
2022/01/07 04:08:10;;;;;;;15.87;7.77;;;;;;;-3.74;100.00;96534.16;5072864;28;21040;-75
2022/01/07 04:10:38;;;;;;;17.33;9.93;;;;;;;-3.64;100.00;96562.75;5055934;28;20961;-75
2022/01/07 04:13:06;;;;;;;14.27;9.70;;;;;;;-3.70;100.00;96537.06;5072364;28;20476;-75
2022/01/07 04:15:32;;;;;;;17.77;8.77;;;;;;;-3.82;100.00;96531.16;5072250;28;20444;-75
2022/01/07 04:17:59;;;;;;;20.03;9.70;;;;;;;-3.81;100.00;96543.06;5072403;28;20428;-75
2022/01/07 04:20:30;;;;;;;30.43;10.23;;;;;;;-3.62;100.00;96565.09;5073524;28;20428;-75
2022/01/07 04:22:58;;;;;;;17.63;7.73;;;;;;;-3.72;100.00;96542.47;5072325;28;20476;-74
2022/01/07 04:25:25;;;;;;;35.57;10.00;;;;;;;-3.67;100.00;96549.53;5072068;28;20470;-75
2022/01/07 04:28:04;;;;;;;16.30;10.50;;;;;;;-3.53;100.00;96562.94;5055303;28;21075;-75
2022/01/07 04:30:43;;;;;;;33.00;9.97;;;;;;;-3.79;100.00;96526.31;5072186;28;20440;-75
2022/01/07 04:33:13;;;;;;;28.40;9.90;;;;;;;-3.69;100.00;96548.97;5055479;28;20440;-75
2022/01/07 04:35:42;;;;;;;25.77;9.17;;;;;;;-3.60;100.00;96570.84;5071771;28;20448;-74
2022/01/07 04:38:09;;;;;;;27.07;10.43;;;;;;;-3.60;100.00;96563.88;5071957;28;20429;-75
2022/01/07 04:40:56;;;;;;;16.17;9.33;;;;;;;-4.05;100.00;96504.38;5071892;28;20431;-75
2022/01/07 04:43:23;;;;;;;17.80;8.70;;;;;;;-3.57;100.00;96566.00;5010993;28;20497;-74
2022/01/07 04:45:51;;;;;;;15.90;8.70;;;;;;;-3.93;100.00;96509.53;5011202;28;20455;-75
2022/01/07 04:48:18;;;;;;;15.00;9.37;;;;;;;-3.53;100.00;96557.78;4994331;28;20544;-75
2022/01/07 04:50:45;;;;;;;19.20;8.17;;;;;;;-3.81;100.00;96535.31;4994399;28;20439;-76
2022/01/07 04:53:11;;;;;;;20.27;9.07;;;;;;;-3.52;100.00;96557.56;5010597;28;20477;-75
2022/01/07 04:55:38;;;;;;;13.87;9.97;;;;;;;-3.88;100.00;96507.81;5010496;28;20435;-75
2022/01/07 04:58:07;;;;;;;19.20;9.37;;;;;;;-3.90;100.00;96499.50;4994228;28;20451;-75
2022/01/07 05:00:35;;;;;;;19.87;10.77;;;;;;;-3.68;100.00;96512.56;4994476;28;20443;-75
2022/01/07 05:03:02;;;;;;;13.50;9.03;;;;;;;-3.37;100.00;96550.06;5010691;28;20930;-75
2022/01/07 05:05:29;;;;;;;13.03;8.73;;;;;;;-3.44;100.00;96530.56;4994091;28;20443;-75
2022/01/07 05:07:56;;;;;;;13.13;9.23;;;;;;;-3.66;100.00;96510.53;4993973;28;20462;-75
2022/01/07 05:10:23;;;;;;;17.63;9.03;;;;;;;-3.36;100.00;96550.84;4994299;28;20442;-75
2022/01/07 05:12:50;;;;;;;20.77;9.50;;;;;;;-3.38;100.00;96550.31;5010315;28;20439;-75
2022/01/07 05:15:18;;;;;;;18.17;10.70;;;;;;;-3.45;100.00;96514.28;4994051;28;20478;-75
2022/01/07 05:17:46;;;;;;;16.80;9.10;;;;;;;-3.24;100.00;96545.63;4977662;28;20963;-75
2022/01/07 05:20:14;;;;;;;13.27;8.57;;;;;;;-3.16;100.00;96558.19;5023203;28;20486;-75
2022/01/07 05:22:41;;;;;;;18.10;8.27;;;;;;;-3.16;100.00;96553.00;5072202;28;20511;-75
2022/01/07 05:25:09;;;;;;;11.87;8.63;;;;;;;-3.45;100.00;96509.09;5070841;28;20448;-75
2022/01/07 05:27:36;;;;;;;15.10;9.50;;;;;;;-3.18;100.00;96540.31;5054266;28;20492;-75
2022/01/07 05:30:06;;;;;;;14.20;8.83;;;;;;;-3.16;100.00;96547.84;5071392;28;20475;-75
2022/01/07 05:32:33;;;;;;;13.93;9.53;;;;;;;-3.44;100.00;96510.69;5072432;28;20432;-75
2022/01/07 05:34:59;;;;;;;14.97;9.53;;;;;;;-3.48;100.00;96501.00;5054123;28;20472;-75
2022/01/07 05:37:26;;;;;;;16.83;11.87;;;;;;;-3.29;100.00;96528.25;5054075;28;20464;-75
2022/01/07 05:39:55;;;;;;;12.43;8.77;;;;;;;-3.16;100.00;96537.50;5055208;28;20432;-76
2022/01/07 05:42:23;;;;;;;15.20;10.10;;;;;;;-3.16;100.00;96527.94;5054556;28;20447;-74
2022/01/07 05:44:50;;;;;;;17.00;9.90;;;;;;;-3.16;100.00;96532.34;5072529;28;20490;-74
2022/01/07 05:47:18;;;;;;;17.10;10.33;;;;;;;-3.27;100.00;96521.03;5060039;28;20463;-74
2022/01/07 05:49:46;;;;;;;14.80;10.30;;;;;;;-3.34;100.00;96512.63;5071827;28;20440;-74
2022/01/07 05:52:12;;;;;;;13.77;10.00;;;;;;;-3.06;100.00;96522.94;5070710;28;20471;-74
2022/01/07 05:54:39;;;;;;;16.97;10.67;;;;;;;-3.09;100.00;96518.22;5070506;28;20920;-74
2022/01/07 05:57:06;;;;;;;13.60;10.27;;;;;;;-3.01;100.00;96532.56;5070761;28;20487;-74
2022/01/07 05:59:33;;;;;;;13.87;10.10;;;;;;;-2.95;100.00;96534.22;5071299;28;20957;-74
2022/01/07 06:02:01;;;;;;;13.00;9.50;;;;;;;-3.07;100.00;96497.28;5053979;28;20444;-74
2022/01/07 06:04:28;;;;;;;13.00;10.20;;;;;;;-3.15;100.00;96498.47;5071727;28;20482;-74
2022/01/07 06:06:54;;;;;;;19.10;10.37;;;;;;;-3.07;100.00;96498.09;5070406;28;20503;-74
2022/01/07 06:09:21;;;;;;;17.00;10.53;;;;;;;-2.85;100.00;96536.19;5071713;28;20428;-74
2022/01/07 06:11:48;;;;;;;16.30;10.23;;;;;;;-3.07;100.00;96497.28;5053875;28;20440;-76
2022/01/07 06:14:15;;;;;;;19.60;15.40;;;;;;;-2.87;100.00;96546.75;5070544;28;20428;-76
2022/01/07 06:16:44;;;;;;;17.77;10.80;;;;;;;-2.81;100.00;96539.84;5071620;28;20451;-76
2022/01/07 06:19:11;;;;;;;18.03;10.43;;;;;;;-3.00;100.00;96522.00;5070666;28;20432;-76
2022/01/07 06:21:38;;;;;;;17.50;10.47;;;;;;;-2.78;100.00;96542.78;5072013;28;20440;-76
2022/01/07 06:24:06;;;;;;;13.20;11.07;;;;;;;-2.81;100.00;96519.16;5076475;28;20785;-76
2022/01/07 06:26:32;;;;;;;17.57;11.80;;;;;;;-2.93;100.00;96496.00;5076898;28;20547;-75
2022/01/07 06:28:59;;;;;;;12.23;8.90;;;;;;;-2.74;100.00;96540.50;5076949;28;20467;-76
2022/01/07 06:31:26;;;;;;;13.10;9.73;;;;;;;-3.00;100.00;96498.72;5077145;28;20478;-74
2022/01/07 06:33:53;;;;;;;14.43;10.13;;;;;;;-2.77;100.00;96531.41;5060148;28;20432;-74
2022/01/07 06:36:19;;;;;;;16.77;10.37;;;;;;;-2.77;100.00;96530.63;5059770;28;21047;-74
2022/01/07 06:38:46;;;;;;;16.00;10.93;;;;;;;-2.73;100.00;96537.66;5078138;28;20428;-74
2022/01/07 06:41:13;;;;;;;21.70;12.47;;;;;;;-2.82;100.00;96523.53;5076737;28;20878;-74
2022/01/07 06:43:40;;;;;;;24.53;11.37;;;;;;;-2.93;100.00;96527.03;5060092;28;20436;-74
2022/01/07 06:46:06;;;;;;;17.30;11.03;;;;;;;-2.81;100.00;96530.28;5060028;28;20456;-74
2022/01/07 06:48:33;;;;;;;21.07;12.37;;;;;;;-2.74;100.00;96537.91;5059801;28;20456;-74
2022/01/07 06:51:00;;;;;;;22.37;11.47;;;;;;;-3.01;100.00;96484.22;5059904;28;20493;-74
2022/01/07 06:53:29;;;;;;;13.33;10.67;;;;;;;-2.91;100.00;96506.09;5076860;28;20440;-74
2022/01/07 06:55:57;;;;;;;15.03;11.47;;;;;;;-2.75;100.00;96534.53;5059664;28;20986;-74
2022/01/07 06:58:23;;;;;;;18.20;12.27;;;;;;;-2.77;100.00;96515.88;5059696;28;20585;-74
2022/01/07 07:00:50;;;;;;;15.20;10.43;;;;;;;-2.77;100.00;96510.72;5077708;28;20428;-74
2022/01/07 07:03:17;;;;;;;16.30;11.40;;;;;;;-2.64;100.00;96524.34;5060244;28;20531;-74
2022/01/07 07:05:44;;;;;;;14.83;10.17;;;;;;;-2.82;100.00;96507.25;5059600;28;20460;-74
2022/01/07 07:08:11;;;;;;;19.33;10.23;;;;;;;-2.65;100.00;96528.72;5077645;28;20493;-74
2022/01/07 07:10:37;;;;;;;13.53;9.07;;;;;;;-3.03;100.00;96499.19;5076243;28;20497;-74
2022/01/07 07:13:05;;;;;;;13.80;8.10;;;;;;;-2.94;100.00;96506.53;5076915;28;20432;-74
2022/01/07 07:15:32;;;;;;;14.37;10.50;;;;;;;-2.80;100.00;96523.34;5059564;28;20458;-73
2022/01/07 07:17:59;;;;;;;13.23;8.13;;;;;;;-2.95;100.00;96502.38;5076108;28;20452;-73
2022/01/07 07:20:25;;;;;;;11.90;7.67;;;;;;;-2.85;100.00;96531.78;5059875;28;20497;-73
2022/01/07 07:22:52;;;;;;;12.50;9.33;;;;;;;-2.79;100.00;96497.22;5076434;28;20931;-74
2022/01/07 07:25:22;;;;;;;12.10;8.83;;;;;;;-2.63;100.00;96537.03;5076713;28;20428;-74
2022/01/07 07:27:50;;;;;;;10.60;6.37;;;;;;;-2.99;100.00;96495.09;5077383;28;20456;-74
2022/01/07 07:30:17;;;;;;;14.03;9.50;;;;;;;-2.78;100.00;96511.72;5059398;28;20478;-74
2022/01/07 07:32:44;;;;;;;11.27;7.30;;;;;;;-2.88;100.00;96519.34;5076316;28;20424;-73
2022/01/07 07:37:48;;;;;;;16.13;8.83;;;;;;;-2.79;100.00;96533.44;5073283;28;20474;-73
2022/01/07 07:40:16;;;;;;;9.80;6.60;;;;;;;-2.77;100.00;96530.63;5073264;28;20494;-74
2022/01/07 07:42:43;;;;;;;9.67;7.10;;;;;;;-2.77;100.00;96515.88;5074424;28;20970;-73
2022/01/07 07:45:16;;;;;;;10.57;7.50;;;;;;;-2.91;100.00;96509.47;5072811;28;20448;-74
2022/01/07 07:47:42;;;;;;;8.93;6.60;;;;;;;-2.92;100.00;96492.38;5072755;28;21034;-74
2022/01/07 07:50:13;;;;;;;12.77;6.63;;;;;;;-2.80;100.00;96521.53;5056917;28;20531;-74
2022/01/07 07:52:40;;;;;;;12.80;8.53;;;;;;;-2.76;100.00;96517.44;5056157;28;20509;-74
2022/01/07 07:55:07;;;;;;;10.43;8.57;;;;;;;-2.74;100.00;96530.94;5051954;28;20445;-74
2022/01/07 07:57:34;;;;;;;10.83;7.90;;;;;;;-3.01;100.00;96488.63;5068972;28;20519;-74
2022/01/07 08:00:00;;;;;;;11.87;8.83;;;;;;;-2.72;100.00;96521.13;5052874;28;20514;-74
2022/01/07 08:02:30;;;;;;;8.60;7.63;;;;;;;-2.66;100.00;96514.22;5036104;28;20445;-74
2022/01/07 08:04:57;;;;;;;8.00;7.20;;;;;;;-2.62;100.00;96522.28;5069066;28;20487;-75
2022/01/07 08:07:24;;;;;;;9.10;7.10;;;;;;;-2.69;100.00;96499.94;5053612;28;20500;-75
2022/01/07 08:09:52;;;;;;;13.80;7.00;;;;;;;-2.86;100.00;96475.91;5069278;28;20433;-75
2022/01/07 08:12:24;;;;;;;26.57;15.10;;;;;;;-2.59;100.00;96506.28;5069146;28;20473;-75
2022/01/07 08:17:36;;;;;;;19.73;9.80;;;;;;;-2.62;100.00;96493.84;5052084;28;21035;-74
2022/01/07 08:20:04;;;;;;;14.97;9.70;;;;;;;-2.50;100.00;96508.25;5068860;28;20499;-74
2022/01/07 08:22:30;;;;;;;13.63;9.20;;;;;;;-2.60;100.00;96478.84;5052232;28;20468;-74
2022/01/07 08:24:57;;;;;;;13.13;8.83;;;;;;;-2.77;100.00;96448.63;5068750;28;20544;-74
2022/01/07 08:27:24;;;;;;;15.20;8.00;;;;;;;-2.48;100.00;96488.06;5051875;28;20461;-74
2022/01/07 08:30:11;;;;;;;13.33;8.17;;;;;;;-2.41;100.00;96500.81;5068866;28;20436;-74
2022/01/07 08:35:23;;;;;;;15.50;8.37;;;;;;;-2.38;100.00;96501.16;5068730;28;20428;-73
2022/01/07 08:37:49;;;;;;;14.80;8.90;;;;;;;-2.34;100.00;96490.31;5068472;28;20495;-73
2022/01/07 08:40:16;;;;;;;12.60;8.00;;;;;;;-2.40;100.00;96472.16;5068491;28;20481;-73
2022/01/07 08:42:43;;;;;;;13.60;9.93;;;;;;;-2.29;100.00;96480.00;5068647;28;20477;-73
2022/01/07 08:45:10;;;;;;;9.90;8.40;;;;;;;-2.24;100.00;96478.28;5051829;28;20452;-73
2022/01/07 08:47:36;;;;;;;15.33;9.73;;;;;;;-2.26;100.00;96462.22;5067836;28;20518;-73
2022/01/07 08:50:04;;;;;;;11.90;9.07;;;;;;;-2.15;100.00;96474.22;5052893;28;20487;-73
2022/01/07 08:52:31;;;;;;;9.60;8.30;;;;;;;-2.05;100.00;96489.13;5068537;28;20441;-73
2022/01/07 08:54:58;;;;;;;14.90;9.17;;;;;;;-2.08;100.00;96489.59;5051673;28;20896;-73
2022/01/07 08:57:25;;;;;;;14.50;8.77;;;;;;;-2.14;100.00;96459.47;5053138;28;20448;-73
2022/01/07 08:59:54;;;;;;;13.57;9.43;;;;;;;-2.56;100.00;96403.06;5068286;28;20472;-73
2022/01/07 09:02:21;;;;;;;10.33;7.80;;;;;;;-2.26;100.00;96453.66;5051593;28;20433;-74
2022/01/07 09:04:48;;;;;;;11.57;9.63;;;;;;;-2.13;100.00;96468.84;5068950;28;20932;-73
2022/01/07 09:07:14;;;;;;;13.70;9.13;;;;;;;-1.96;100.00;96486.91;5052469;28;20510;-72
2022/01/07 09:09:41;;;;;;;13.60;9.83;;;;;;;-1.93;100.00;96474.22;5067807;28;20929;-75
2022/01/07 09:12:09;;;;;;;11.20;7.40;;;;;;;-2.25;100.00;96431.94;5052794;28;20511;-75
2022/01/07 09:14:36;;;;;;;12.00;9.27;;;;;;;-2.14;100.00;96443.94;5051321;28;20467;-75
2022/01/07 09:17:03;;;;;;;17.10;8.97;;;;;;;-2.08;100.00;96446.34;5067608;28;20980;-75
2022/01/07 09:19:30;;;;;;;12.67;8.23;;;;;;;-1.98;100.00;96455.28;5067765;28;20472;-74
2022/01/07 09:21:56;;;;;;;12.77;8.20;;;;;;;-1.82;100.00;96475.91;5051329;28;21011;-74
2022/01/07 09:24:26;;;;;;;20.53;9.90;;;;;;;-1.75;100.00;96474.91;5051217;28;20484;-75
2022/01/07 09:26:54;;;;;;;12.17;7.90;;;;;;;-1.96;100.00;96448.81;5067781;28;20449;-75
2022/01/07 09:29:23;;;;;;;17.30;9.33;;;;;;;-1.83;100.00;96463.97;5067318;28;20465;-75
2022/01/07 09:31:51;;;;;;;13.97;7.97;;;;;;;-1.64;100.00;96484.38;5051179;28;20531;-73
2022/01/07 09:34:19;;;;;;;14.30;7.40;;;;;;;-1.58;100.00;96478.22;5067048;28;20523;-73
2022/01/07 09:36:58;;;;;;;13.07;8.43;;;;;;;-1.65;100.00;96460.25;5065677;28;20467;-75
2022/01/07 09:39:25;;;;;;;11.93;7.90;;;;;;;-1.48;100.00;96475.69;5052091;28;20461;-75
2022/01/07 09:41:51;;;;;;;13.13;9.70;;;;;;;-1.62;100.00;96433.84;5067449;28;20453;-73
2022/01/07 09:44:18;;;;;;;16.87;9.33;;;;;;;-1.56;100.00;96429.50;5052035;28;20472;-73
2022/01/07 09:46:45;;;;;;;10.17;8.90;;;;;;;-1.68;100.00;96408.94;5051872;28;20484;-73
2022/01/07 09:49:12;;;;;;;15.00;10.10;;;;;;;-1.39;100.00;96455.31;5067260;28;20465;-73
2022/01/07 09:51:40;;;;;;;14.67;10.07;;;;;;;-1.36;100.00;96455.59;5050090;28;20456;-73
2022/01/07 09:54:07;;;;;;;16.13;7.97;;;;;;;-1.34;100.00;96448.34;5052320;28;20456;-75
2022/01/07 09:56:35;;;;;;;12.97;8.40;;;;;;;-1.46;100.00;96410.66;5060176;28;20559;-75
2022/01/07 09:59:05;;;;;;;12.50;9.27;;;;;;;-1.33;100.00;96421.41;5069909;28;20440;-75
2022/01/07 10:01:58;;;;;;;11.20;7.23;;;;;;;-1.13;100.00;96436.31;5070786;28;20559;-75
2022/01/07 10:04:31;;;;;;;13.07;7.33;;;;;;;-0.89;100.00;96436.75;5072833;28;20425;-75
2022/01/07 10:07:13;;;;;;;11.80;8.30;;;;;;;-1.12;100.00;96419.72;5071480;28;20801;-73
2022/01/07 10:09:41;;;;;;;14.10;8.17;;;;;;;-1.16;100.00;96416.06;5049650;28;20460;-75
2022/01/07 10:12:08;;;;;;;12.33;7.47;;;;;;;-1.15;100.00;96390.91;5050876;28;20444;-75
2022/01/07 10:14:36;;;;;;;11.17;7.57;;;;;;;-1.01;100.00;96418.00;5050809;28;20441;-75
2022/01/07 10:17:03;;;;;;;11.23;7.60;;;;;;;-1.12;100.00;96400.78;5051465;28;20887;-75
2022/01/07 10:19:42;;;;;;;13.97;8.83;;;;;;;-1.23;100.00;96390.34;5067017;28;20437;-73
2022/01/07 10:22:12;;;;;;;13.83;8.07;;;;;;;-0.91;100.00;96411.06;5051632;28;20428;-73
2022/01/07 10:25:00;;;;;;;10.53;6.90;;;;;;;-0.81;100.00;96412.91;5067212;28;20864;-73
2022/01/07 10:27:38;;;;;;;13.33;9.27;;;;;;;-0.77;100.00;96414.00;5050404;28;20556;-73
2022/01/07 10:30:14;;;;;;;28.40;17.50;;;;;;;-0.66;100.00;96397.44;5050360;28;20991;-73
2022/01/07 10:32:41;;;;;;;11.80;7.93;;;;;;;-0.54;100.00;96399.03;5050233;28;20468;-73
2022/01/07 10:35:13;;;;;;;12.93;8.17;;;;;;;-0.54;100.00;96402.41;5066960;28;20473;-73
2022/01/07 10:37:49;;;;;;;14.57;8.70;;;;;;;-0.52;100.00;96396.97;5067144;28;20507;-75
2022/01/07 10:40:27;;;;;;;11.77;6.93;;;;;;;-0.62;100.00;96393.28;5051728;28;20773;-76
2022/01/07 10:43:19;;;;;;;10.90;7.70;;;;;;;-0.63;100.00;96385.75;5067422;28;20445;-75
2022/01/07 10:45:52;;;;;;;11.23;8.23;;;;;;;-0.90;100.00;96332.19;5035784;28;20844;-76
2022/01/07 10:48:34;;;;;;;8.20;6.17;;;;;;;-0.50;100.00;96387.13;5053709;28;21025;-73
2022/01/07 10:51:08;;;;;;;15.97;7.93;;;;;;;-0.57;100.00;96371.75;5067283;28;20463;-76
2022/01/07 10:53:37;;;;;;;12.50;6.93;;;;;;;-0.45;100.00;96380.13;5069333;28;20477;-76
2022/01/07 10:56:04;;;;;;;10.90;8.20;;;;;;;-0.46;100.00;96365.56;5053558;28;20471;-74
2022/01/07 10:58:49;;;;;;;9.63;7.40;;;;;;;-0.51;100.00;96362.97;5069254;28;20867;-73
2022/01/07 11:01:19;;;;;;;9.73;7.97;;;;;;;-0.51;100.00;96362.97;5068268;28;20571;-74
2022/01/07 11:03:52;;;;;;;13.43;7.77;;;;;;;-0.53;100.00;96365.03;5067114;28;20447;-73
2022/01/07 11:06:20;;;;;;;10.53;7.70;;;;;;;-0.60;100.00;96341.91;5066826;28;20506;-74
2022/01/07 11:08:49;;;;;;;12.40;8.87;;;;;;;-0.50;100.00;96342.97;5050931;28;20528;-74
2022/01/07 11:11:16;;;;;;;11.50;7.30;;;;;;;-0.79;100.00;96312.25;5070912;28;20441;-73
2022/01/07 11:13:42;;;;;;;8.87;7.87;;;;;;;-0.54;100.00;96339.31;5070764;28;20497;-74
2022/01/07 11:16:09;;;;;;;11.20;7.27;;;;;;;-0.45;100.00;96351.53;5053960;28;20503;-74
2022/01/07 11:18:38;;;;;;;12.40;7.90;;;;;;;-0.43;100.00;96348.69;5070698;28;20467;-73
2022/01/07 11:21:06;;;;;;;9.83;7.03;;;;;;;-0.46;100.00;96349.22;5055000;28;20461;-74
2022/01/07 11:23:37;;;;;;;10.47;8.83;;;;;;;-0.48;100.00;96338.31;5070409;28;20453;-74
2022/01/07 11:26:05;;;;;;;10.00;7.03;;;;;;;-0.65;100.00;96313.34;5053383;28;20469;-74
2022/01/07 11:28:33;;;;;;;9.80;7.23;;;;;;;-0.63;100.00;96315.66;5053816;28;20967;-73